Time;durP1;ratioP1;P1;durP2;ratioP2;P2;SDS_P1;SDS_P2;PMS_P1;PMS_P2;Temp;Humidity;BMP_temperature;BMP_pressure;BME280_temperature;BME280_humidity;BME280_pressure;Samples;Min_cycle;Max_cycle;Signal;HPM_P1;HPM_P2
2023/08/30 00:01:24;;;;;;;10.87;9.77;;;15.80;99.90;;;;;;5047472;28;20662;-72
2023/08/30 00:03:50;;;;;;;11.10;10.10;;;15.80;99.90;;;;;;5048797;28;20650;-72
2023/08/30 00:06:16;;;;;;;9.90;8.93;;;15.80;99.90;;;;;;5049953;28;20649;-71
2023/08/30 00:08:41;;;;;;;9.93;8.80;;;15.80;99.90;;;;;;5064671;28;20217;-71
2023/08/30 00:11:07;;;;;;;10.57;9.47;;;15.80;99.90;;;;;;5063050;28;20185;-72
2023/08/30 00:13:33;;;;;;;9.23;8.43;;;15.80;99.90;;;;;;5059728;28;20188;-72
2023/08/30 00:15:59;;;;;;;8.97;8.20;;;15.70;99.90;;;;;;5050334;28;20267;-72
2023/08/30 00:18:25;;;;;;;10.07;9.10;;;15.70;99.90;;;;;;5048752;28;20490;-72
2023/08/30 00:20:51;;;;;;;9.57;8.60;;;15.50;99.90;;;;;;5048907;28;20421;-72
2023/08/30 00:23:16;;;;;;;10.00;8.90;;;15.40;99.90;;;;;;5047366;28;20215;-72
2023/08/30 00:25:42;;;;;;;10.40;9.30;;;15.40;99.90;;;;;;5048438;28;20276;-72
2023/08/30 00:28:08;;;;;;;8.87;8.07;;;15.30;99.90;;;;;;5047194;28;20260;-72
2023/08/30 00:30:34;;;;;;;10.40;9.50;;;15.20;99.90;;;;;;5048172;28;20201;-72
2023/08/30 00:32:59;;;;;;;8.90;8.00;;;15.20;99.90;;;;;;5029782;28;20204;-71
2023/08/30 00:35:25;;;;;;;9.40;8.50;;;15.10;99.90;;;;;;5047962;28;20209;-71
2023/08/30 00:37:50;;;;;;;9.87;8.90;;;15.10;99.90;;;;;;5047478;28;20212;-72
2023/08/30 00:40:16;;;;;;;9.63;8.63;;;15.10;99.90;;;;;;5046640;28;20238;-72
2023/08/30 00:42:42;;;;;;;10.60;9.60;;;15.10;99.90;;;;;;5047997;28;20182;-72
2023/08/30 00:45:08;;;;;;;9.50;7.73;;;15.20;99.90;;;;;;5047571;28;20331;-72
2023/08/30 00:47:34;;;;;;;10.47;8.40;;;15.20;99.90;;;;;;5045773;28;20188;-72
2023/08/30 00:50:01;;;;;;;11.40;9.47;;;15.20;99.90;;;;;;5047872;28;20440;-71
2023/08/30 00:52:26;;;;;;;9.47;8.20;;;15.30;99.90;;;;;;5047569;28;20751;-71
2023/08/30 00:54:52;;;;;;;8.33;7.47;;;15.30;99.90;;;;;;5047467;28;20431;-71
2023/08/30 00:57:18;;;;;;;10.90;8.57;;;15.20;99.90;;;;;;5046982;28;20174;-72
2023/08/30 00:59:44;;;;;;;9.77;8.10;;;15.20;99.90;;;;;;5046858;28;20459;-72
2023/08/30 01:02:10;;;;;;;8.33;7.63;;;15.20;99.90;;;;;;5046570;28;20182;-72
2023/08/30 01:04:35;;;;;;;11.03;7.90;;;15.20;99.90;;;;;;5039596;28;20186;-71
2023/08/30 01:07:01;;;;;;;9.63;8.60;;;15.10;99.90;;;;;;5032201;28;20244;-71
2023/08/30 01:09:27;;;;;;;16.43;9.90;;;15.10;99.90;;;;;;5045435;28;20651;-71
2023/08/30 01:12:01;;;;;;;9.20;8.20;;;15.10;99.90;;;;;;5047662;28;20716;-72
2023/08/30 01:15:02;;;;;;;10.00;9.00;;;15.10;99.90;;;;;;5046507;28;20185;-71
2023/08/30 01:17:30;;;;;;;10.27;9.27;;;15.10;99.90;;;;;;5031693;28;20427;-72
2023/08/30 01:20:13;;;;;;;11.23;10.13;;;15.10;99.90;;;;;;5051434;28;20447;-71
2023/08/30 01:23:02;;;;;;;10.33;9.37;;;15.10;99.90;;;;;;5054442;28;20447;-71
2023/08/30 01:25:34;;;;;;;12.13;10.93;;;15.00;99.90;;;;;;5053318;28;20759;-71
2023/08/30 01:28:04;;;;;;;12.20;11.00;;;15.00;99.90;;;;;;5051981;28;20420;-71
2023/08/30 01:30:33;;;;;;;11.67;10.57;;;15.00;99.90;;;;;;5053228;28;20428;-72
2023/08/30 01:33:01;;;;;;;12.70;11.37;;;15.00;99.90;;;;;;5053950;28;20422;-72
2023/08/30 01:35:32;;;;;;;12.43;11.13;;;15.10;99.90;;;;;;5044307;28;20459;-71
2023/08/30 01:37:59;;;;;;;12.77;11.47;;;15.00;99.90;;;;;;5053155;28;20461;-72
2023/08/30 01:40:28;;;;;;;12.20;11.10;;;15.10;99.90;;;;;;5052728;28;20416;-71
2023/08/30 01:42:54;;;;;;;13.43;12.07;;;15.10;99.90;;;;;;5053955;28;20424;-72
2023/08/30 01:45:22;;;;;;;13.20;11.90;;;15.00;99.90;;;;;;5053232;28;20924;-71
2023/08/30 01:47:48;;;;;;;14.80;12.33;;;15.00;99.90;;;;;;5050483;28;21034;-71
2023/08/30 01:50:15;;;;;;;13.40;12.00;;;14.90;99.90;;;;;;5053495;28;20436;-71
2023/08/30 01:52:42;;;;;;;15.47;13.87;;;14.90;99.90;;;;;;5053733;28;20474;-71
2023/08/30 01:55:10;;;;;;;14.23;12.93;;;14.80;99.90;;;;;;5053214;28;20552;-71
2023/08/30 01:57:35;;;;;;;14.73;12.30;;;14.80;99.90;;;;;;5051734;28;20763;-71
2023/08/30 02:00:01;;;;;;;16.97;15.17;;;14.80;99.90;;;;;;5051434;28;20435;-71
2023/08/30 02:02:30;;;;;;;15.80;13.43;;;14.90;99.90;;;;;;5053226;28;20182;-71
2023/08/30 02:04:56;;;;;;;15.70;13.43;;;14.90;99.90;;;;;;5053078;28;20188;-71
2023/08/30 02:08:00;;;;;;;15.23;13.70;;;14.90;99.90;;;;;;5052509;28;20925;-71
2023/08/30 02:10:34;;;;;;;17.20;13.77;;;14.90;99.90;;;;;;5045531;28;20176;-71
2023/08/30 02:13:01;;;;;;;18.10;16.23;;;14.90;99.90;;;;;;5053581;28;20927;-71
2023/08/30 02:15:27;;;;;;;21.70;15.20;;;14.90;99.90;;;;;;5053445;28;20535;-71
2023/08/30 02:17:54;;;;;;;19.70;16.87;;;14.90;99.90;;;;;;5052805;28;20499;-71
2023/08/30 02:20:20;;;;;;;17.73;15.43;;;15.00;99.90;;;;;;5052260;28;20912;-71
2023/08/30 02:22:45;;;;;;;18.50;16.40;;;15.00;99.90;;;;;;5053612;28;20474;-71
2023/08/30 02:25:11;;;;;;;17.60;15.90;;;15.10;99.90;;;;;;5052003;28;20185;-71
2023/08/30 02:27:37;;;;;;;17.17;14.93;;;15.10;99.90;;;;;;5052964;28;20185;-71
2023/08/30 02:30:03;;;;;;;18.03;16.17;;;15.10;99.90;;;;;;5052617;28;20276;-71
2023/08/30 02:32:29;;;;;;;18.47;16.40;;;15.10;99.90;;;;;;5049820;28;20347;-71
2023/08/30 02:34:56;;;;;;;16.37;14.77;;;15.00;99.90;;;;;;5049925;28;20851;-71
2023/08/30 02:37:22;;;;;;;17.53;15.73;;;15.00;99.90;;;;;;5049743;28;20170;-71
2023/08/30 02:39:47;;;;;;;18.73;16.60;;;15.00;99.90;;;;;;5050390;28;20536;-71
2023/08/30 02:42:13;;;;;;;16.93;15.07;;;15.00;99.90;;;;;;5049179;28;20177;-71
2023/08/30 02:44:39;;;;;;;17.70;15.70;;;15.00;99.90;;;;;;5049922;28;20177;-71
2023/08/30 02:47:04;;;;;;;17.13;15.40;;;15.00;99.90;;;;;;5048191;28;20596;-71
2023/08/30 02:49:30;;;;;;;17.17;15.50;;;15.00;99.90;;;;;;5050459;28;20293;-71
2023/08/30 02:51:56;;;;;;;20.50;17.77;;;14.80;99.90;;;;;;5049010;28;20239;-71
2023/08/30 02:54:22;;;;;;;18.23;16.30;;;14.70;99.90;;;;;;5048991;28;20221;-71
2023/08/30 02:56:48;;;;;;;17.80;15.90;;;14.60;99.90;;;;;;5049692;28;20213;-70
2023/08/30 02:59:14;;;;;;;18.73;16.83;;;14.60;99.90;;;;;;5047886;28;21122;-71
2023/08/30 03:01:40;;;;;;;18.00;16.27;;;14.60;99.90;;;;;;5050314;28;20491;-71
2023/08/30 03:04:06;;;;;;;18.57;16.73;;;14.50;99.90;;;;;;5049066;28;20500;-71
2023/08/30 03:06:33;;;;;;;18.10;16.23;;;14.50;99.90;;;;;;5048122;28;20178;-71
2023/08/30 03:08:58;;;;;;;19.37;17.43;;;14.50;99.90;;;;;;5049587;28;20446;-71
2023/08/30 03:11:24;;;;;;;20.10;17.70;;;14.60;99.90;;;;;;5049474;28;20488;-71
2023/08/30 03:13:50;;;;;;;18.87;16.70;;;14.60;99.90;;;;;;5060222;28;20161;-70
2023/08/30 03:16:16;;;;;;;18.50;16.60;;;14.70;99.90;;;;;;5065320;28;20576;-71
2023/08/30 03:18:43;;;;;;;20.50;16.53;;;14.70;99.90;;;;;;5063733;28;20439;-71
2023/08/30 03:21:10;;;;;;;19.03;15.80;;;14.60;99.90;;;;;;5055933;28;20413;-71
2023/08/30 03:23:36;;;;;;;18.20;16.40;;;14.60;99.90;;;;;;5050526;28;20427;-71
2023/08/30 03:26:15;;;;;;;17.23;15.30;;;14.50;99.90;;;;;;5049652;28;20424;-71
2023/08/30 03:28:43;;;;;;;21.60;17.07;;;14.50;99.90;;;;;;5049061;28;20452;-71
2023/08/30 03:31:15;;;;;;;18.37;16.10;;;14.50;99.90;;;;;;5048384;28;20514;-71
2023/08/30 03:33:43;;;;;;;17.17;15.50;;;14.50;99.90;;;;;;5049678;28;20853;-71
2023/08/30 03:36:16;;;;;;;17.67;15.83;;;14.40;99.90;;;;;;5049200;28;20784;-70
2023/08/30 03:38:42;;;;;;;18.30;15.90;;;14.30;99.90;;;;;;5049138;28;20785;-71
2023/08/30 03:41:10;;;;;;;19.53;16.27;;;14.20;99.90;;;;;;5049291;28;20409;-71
2023/08/30 03:43:35;;;;;;;20.17;18.07;;;14.10;99.90;;;;;;5049515;28;20409;-71
2023/08/30 03:46:02;;;;;;;20.90;18.77;;;14.00;99.90;;;;;;5048791;28;20866;-71
2023/08/30 03:48:28;;;;;;;20.53;18.17;;;14.00;99.90;;;;;;5047363;28;20670;-71
2023/08/30 03:50:55;;;;;;;19.10;17.10;;;14.00;99.90;;;;;;5049340;28;20427;-71
2023/08/30 03:53:21;;;;;;;19.87;17.87;;;14.00;99.90;;;;;;5048961;28;20419;-71
2023/08/30 03:55:47;;;;;;;19.80;16.80;;;14.00;99.90;;;;;;5048793;28;20448;-71
2023/08/30 03:58:12;;;;;;;21.47;19.17;;;14.00;99.90;;;;;;5048496;28;20947;-71
2023/08/30 04:00:39;;;;;;;20.53;18.40;;;14.10;99.90;;;;;;5047163;28;20721;-71
2023/08/30 04:03:08;;;;;;;21.23;19.03;;;14.10;99.90;;;;;;5049005;28;20169;-71
2023/08/30 04:05:34;;;;;;;20.60;18.20;;;14.10;99.90;;;;;;5047102;28;20459;-71
2023/08/30 04:08:02;;;;;;;25.90;18.93;;;14.10;99.90;;;;;;5048210;28;20416;-71
2023/08/30 04:10:27;;;;;;;24.40;20.30;;;14.10;99.90;;;;;;5048660;28;20404;-71
2023/08/30 04:12:53;;;;;;;25.77;20.63;;;14.10;99.90;;;;;;5048636;28;20432;-71
2023/08/30 04:15:19;;;;;;;22.10;19.80;;;14.10;99.90;;;;;;5048148;28;20217;-71
2023/08/30 04:17:45;;;;;;;21.70;19.47;;;14.10;99.90;;;;;;5046776;28;20235;-71
2023/08/30 04:20:11;;;;;;;23.90;21.07;;;14.10;99.90;;;;;;5048484;28;20432;-71
2023/08/30 04:22:37;;;;;;;22.73;20.10;;;14.10;99.90;;;;;;5048277;28;20181;-71
2023/08/30 04:25:04;;;;;;;26.17;20.03;;;14.20;99.90;;;;;;5047981;28;20499;-71
2023/08/30 04:27:29;;;;;;;22.93;20.53;;;14.30;99.90;;;;;;5047583;28;20412;-71
2023/08/30 04:29:55;;;;;;;24.17;21.57;;;14.20;99.90;;;;;;5048106;28;20459;-71
2023/08/30 04:32:21;;;;;;;24.07;21.20;;;14.20;99.90;;;;;;5048307;28;20217;-71
2023/08/30 04:34:46;;;;;;;27.40;21.87;;;14.20;99.90;;;;;;5047916;28;20177;-71
2023/08/30 04:37:12;;;;;;;24.30;21.70;;;14.10;99.90;;;;;;5047956;28;20206;-71
2023/08/30 04:39:38;;;;;;;24.70;21.30;;;14.10;99.90;;;;;;5048127;28;20543;-71
2023/08/30 04:42:04;;;;;;;25.73;22.83;;;14.10;99.90;;;;;;5047988;28;20272;-70
2023/08/30 04:44:31;;;;;;;23.40;20.60;;;14.00;99.90;;;;;;5048003;28;20200;-71
2023/08/30 04:46:57;;;;;;;23.77;21.00;;;14.00;99.90;;;;;;5045752;28;20793;-71
2023/08/30 04:49:25;;;;;;;25.70;22.77;;;14.00;99.90;;;;;;5048108;28;20447;-71
2023/08/30 04:51:51;;;;;;;26.10;22.60;;;14.00;99.90;;;;;;5046461;28;20201;-71
2023/08/30 04:54:17;;;;;;;26.13;21.83;;;14.00;99.90;;;;;;5047382;28;20511;-71
2023/08/30 04:56:42;;;;;;;24.37;21.40;;;14.00;99.90;;;;;;5046673;28;20554;-71
2023/08/30 04:59:08;;;;;;;23.00;20.60;;;14.00;99.90;;;;;;5047334;28;20452;-71
2023/08/30 05:01:34;;;;;;;23.47;20.97;;;14.00;99.90;;;;;;5044747;28;20178;-71
2023/08/30 05:04:00;;;;;;;27.23;21.97;;;14.00;99.90;;;;;;5047699;28;20217;-71
2023/08/30 05:06:26;;;;;;;24.77;22.20;;;14.00;99.90;;;;;;5046847;28;20177;-71
2023/08/30 05:08:52;;;;;;;25.90;23.10;;;13.90;99.90;;;;;;5047515;28;20280;-72
2023/08/30 05:11:17;;;;;;;24.60;22.00;;;14.00;99.90;;;;;;5047703;28;20507;-72
2023/08/30 05:13:43;;;;;;;26.97;23.03;;;14.00;99.90;;;;;;5047545;28;20178;-71
2023/08/30 05:16:09;;;;;;;26.03;22.87;;;14.00;99.90;;;;;;5046102;28;20654;-72
2023/08/30 05:18:34;;;;;;;29.47;24.37;;;13.90;99.90;;;;;;5047036;28;20300;-71
2023/08/30 05:21:03;;;;;;;28.57;22.30;;;13.90;99.90;;;;;;5046340;28;20596;-71
2023/08/30 05:23:29;;;;;;;27.03;21.90;;;14.00;99.90;;;;;;5046317;28;20216;-71
2023/08/30 05:25:55;;;;;;;24.90;22.20;;;14.00;99.90;;;;;;5047220;28;20448;-71
2023/08/30 05:28:20;;;;;;;25.90;21.03;;;14.00;99.90;;;;;;5046361;28;20444;-71
2023/08/30 05:30:46;;;;;;;23.53;21.07;;;14.00;99.90;;;;;;5047043;28;20251;-72
2023/08/30 05:33:12;;;;;;;24.20;20.30;;;14.00;99.90;;;;;;5047182;28;20190;-72
2023/08/30 05:35:37;;;;;;;24.23;21.40;;;14.00;99.90;;;;;;5047189;28;20213;-71
2023/08/30 05:38:03;;;;;;;27.30;23.60;;;14.00;99.90;;;;;;5046888;28;20181;-71
2023/08/30 05:40:29;;;;;;;25.30;22.60;;;14.00;99.90;;;;;;5047294;28;20956;-71
2023/08/30 05:42:55;;;;;;;25.50;21.60;;;14.10;99.90;;;;;;5047433;28;20207;-71
2023/08/30 05:45:21;;;;;;;25.47;21.67;;;14.10;99.90;;;;;;5046905;28;20202;-71
2023/08/30 05:47:46;;;;;;;25.73;21.70;;;14.00;99.90;;;;;;5044355;28;20237;-71
2023/08/30 05:50:12;;;;;;;27.87;22.03;;;14.10;99.90;;;;;;5047559;28;20444;-71
2023/08/30 05:52:41;;;;;;;26.93;23.77;;;14.10;99.90;;;;;;5047055;28;20181;-72
2023/08/30 05:55:08;;;;;;;25.60;22.10;;;14.20;99.90;;;;;;5047009;28;20251;-71
2023/08/30 05:57:34;;;;;;;25.87;23.07;;;14.30;99.90;;;;;;5045367;28;20444;-71
2023/08/30 06:00:01;;;;;;;25.47;22.70;;;14.30;99.90;;;;;;5046307;28;21375;-71
2023/08/30 06:02:27;;;;;;;25.90;21.67;;;14.30;99.90;;;;;;5047185;28;20182;-72
2023/08/30 06:04:52;;;;;;;27.60;22.53;;;14.40;99.90;;;;;;5046041;28;20477;-71
2023/08/30 06:07:18;;;;;;;24.33;21.73;;;14.40;99.90;;;;;;5049637;28;20412;-71
2023/08/30 06:09:44;;;;;;;25.17;22.20;;;14.40;99.90;;;;;;5051147;28;20222;-71
2023/08/30 06:12:10;;;;;;;25.43;22.53;;;14.40;99.90;;;;;;5051149;28;20216;-71
2023/08/30 06:14:35;;;;;;;26.70;22.53;;;14.50;99.90;;;;;;5050883;28;20452;-72
2023/08/30 06:17:02;;;;;;;27.63;22.70;;;14.60;99.90;;;;;;5050927;28;20213;-71
2023/08/30 06:19:27;;;;;;;29.37;24.30;;;14.60;99.90;;;;;;5060310;28;20265;-71
2023/08/30 06:21:53;;;;;;;26.90;24.00;;;14.80;99.90;;;;;;5080265;28;20442;-72
2023/08/30 06:24:19;;;;;;;29.20;25.00;;;14.80;99.90;;;;;;5063466;28;20618;-72
2023/08/30 06:26:44;;;;;;;29.27;24.40;;;14.90;99.90;;;;;;5055865;28;20186;-72
2023/08/30 06:29:10;;;;;;;28.10;25.00;;;14.90;99.90;;;;;;5051964;28;20197;-71
2023/08/30 06:31:36;;;;;;;29.17;23.70;;;15.10;99.90;;;;;;5049505;28;20679;-72
2023/08/30 06:34:03;;;;;;;28.93;25.30;;;15.20;99.90;;;;;;5050825;28;20229;-71
2023/08/30 06:36:29;;;;;;;32.87;25.50;;;15.30;99.90;;;;;;5049798;28;20545;-72
2023/08/30 06:38:54;;;;;;;29.13;24.27;;;15.40;99.90;;;;;;5050037;28;20532;-71
2023/08/30 06:41:20;;;;;;;29.80;25.50;;;15.50;99.90;;;;;;5050389;28;20178;-72
2023/08/30 06:43:46;;;;;;;28.50;23.27;;;15.50;99.90;;;;;;5050186;28;20185;-72
2023/08/30 06:46:11;;;;;;;32.83;26.87;;;15.60;99.90;;;;;;5049806;28;20689;-71
2023/08/30 06:48:37;;;;;;;34.70;25.30;;;15.70;99.90;;;;;;5047990;28;20604;-71
2023/08/30 06:51:03;;;;;;;27.30;24.47;;;15.80;99.90;;;;;;5049931;28;20219;-71
2023/08/30 06:53:28;;;;;;;29.03;24.43;;;15.80;99.90;;;;;;5048863;28;20303;-72
2023/08/30 06:56:01;;;;;;;29.10;25.10;;;15.90;99.90;;;;;;5049471;28;20252;-71
2023/08/30 06:58:27;;;;;;;30.10;25.90;;;16.00;99.90;;;;;;5047936;28;20238;-71
2023/08/30 07:00:53;;;;;;;35.33;26.43;;;16.10;99.90;;;;;;5049210;28;20495;-72
2023/08/30 07:03:19;;;;;;;34.00;24.77;;;16.20;99.90;;;;;;5048550;28;20834;-71
2023/08/30 07:05:47;;;;;;;29.37;26.17;;;16.30;99.90;;;;;;5049569;28;20508;-71
2023/08/30 07:08:15;;;;;;;29.53;25.90;;;16.40;99.90;;;;;;5048714;28;20448;-71
2023/08/30 07:10:41;;;;;;;28.70;25.80;;;16.50;99.90;;;;;;5049621;28;20424;-71
2023/08/30 07:13:10;;;;;;;27.10;24.20;;;16.50;99.90;;;;;;5049421;28;20420;-71
2023/08/30 07:15:40;;;;;;;25.40;22.67;;;16.60;99.90;;;;;;5049359;28;20456;-71
2023/08/30 07:18:07;;;;;;;25.40;22.60;;;16.70;99.90;;;;;;5047093;28;20404;-71
2023/08/30 07:20:33;;;;;;;23.13;20.77;;;16.70;99.90;;;;;;5048250;28;20511;-71
2023/08/30 07:22:59;;;;;;;26.13;22.67;;;16.80;99.90;;;;;;5049399;28;20437;-72
2023/08/30 07:25:25;;;;;;;20.60;18.50;;;16.80;99.90;;;;;;5049224;28;21008;-72
2023/08/30 07:27:50;;;;;;;20.70;18.50;;;16.90;99.90;;;;;;5047370;28;20190;-71
2023/08/30 07:30:16;;;;;;;19.50;17.40;;;16.90;99.90;;;;;;5048954;28;20236;-72
2023/08/30 07:32:42;;;;;;;22.63;19.40;;;16.90;99.90;;;;;;5049407;28;20200;-71
2023/08/30 07:35:08;;;;;;;21.07;17.27;;;16.90;99.90;;;;;;5048890;28;20185;-71
2023/08/30 07:37:34;;;;;;;21.57;18.17;;;17.00;99.90;;;;;;5048676;28;20169;-71
2023/08/30 07:40:00;;;;;;;22.40;17.97;;;17.00;99.90;;;;;;5049253;28;20202;-71
2023/08/30 07:42:26;;;;;;;17.30;15.50;;;17.10;99.90;;;;;;5048958;28;20457;-71
2023/08/30 07:44:52;;;;;;;17.30;15.50;;;17.10;99.90;;;;;;5048977;28;20184;-71
2023/08/30 07:47:17;;;;;;;18.23;15.37;;;17.20;99.90;;;;;;5046903;28;20185;-71
2023/08/30 07:49:43;;;;;;;17.70;14.90;;;17.20;99.90;;;;;;5047871;28;20204;-71
2023/08/30 07:52:10;;;;;;;15.73;13.90;;;17.20;99.90;;;;;;5049024;28;20224;-71
2023/08/30 07:54:38;;;;;;;15.77;14.07;;;17.30;99.90;;;;;;5048567;28;20212;-71
2023/08/30 07:57:04;;;;;;;15.57;12.83;;;17.30;99.90;;;;;;5048146;28;20455;-71
2023/08/30 07:59:30;;;;;;;18.13;12.73;;;17.30;99.90;;;;;;5047976;28;20940;-71
2023/08/30 08:01:55;;;;;;;12.77;11.53;;;17.40;99.90;;;;;;5048783;28;20257;-71
2023/08/30 08:04:21;;;;;;;15.43;11.60;;;17.40;99.90;;;;;;5064177;28;20642;-71
2023/08/30 08:06:47;;;;;;;14.80;13.23;;;17.40;99.90;;;;;;5047720;28;20186;-71
2023/08/30 08:09:13;;;;;;;12.97;11.67;;;17.50;99.90;;;;;;5047513;28;20201;-72
2023/08/30 08:11:43;;;;;;;12.20;10.77;;;17.50;99.90;;;;;;5047209;28;21094;-71
2023/08/30 08:14:10;;;;;;;12.77;11.47;;;17.50;99.90;;;;;;5048839;28;20599;-71
2023/08/30 08:16:36;;;;;;;11.70;10.50;;;17.60;99.90;;;;;;5045966;28;20588;-71
2023/08/30 08:19:01;;;;;;;11.57;10.00;;;17.60;99.90;;;;;;5048579;28;20544;-71
2023/08/30 08:21:28;;;;;;;11.23;9.53;;;17.60;99.90;;;;;;5048420;28;20177;-71
2023/08/30 08:23:54;;;;;;;10.40;9.40;;;17.60;99.90;;;;;;5048199;28;20469;-71
2023/08/30 08:26:19;;;;;;;9.00;8.10;;;17.70;99.90;;;;;;5047936;28;20409;-72
2023/08/30 08:28:45;;;;;;;8.87;8.00;;;17.70;99.90;;;;;;5046521;28;20232;-72
2023/08/30 08:31:11;;;;;;;7.73;7.07;;;17.80;99.90;;;;;;5048028;28;20201;-71
2023/08/30 08:33:36;;;;;;;7.63;6.10;;;17.80;99.90;;;;;;5048017;28;20189;-71
2023/08/30 08:36:02;;;;;;;6.73;6.03;;;17.90;99.90;;;;;;5047773;28;20678;-71
2023/08/30 08:38:28;;;;;;;6.70;6.10;;;18.00;99.90;;;;;;5047466;28;20726;-71
2023/08/30 08:41:01;;;;;;;10.30;6.67;;;18.00;99.90;;;;;;5047976;28;20182;-71
2023/08/30 08:43:28;;;;;;;6.80;5.90;;;18.10;99.90;;;;;;5048182;28;20236;-71
2023/08/30 08:45:59;;;;;;;6.80;5.50;;;18.20;99.90;;;;;;5047461;28;20495;-71
2023/08/30 08:48:28;;;;;;;5.40;4.53;;;18.30;99.90;;;;;;5046112;28;20438;-71
2023/08/30 08:50:55;;;;;;;8.47;5.60;;;18.40;99.90;;;;;;5047752;28;20415;-72
2023/08/30 08:53:21;;;;;;;5.37;4.83;;;18.40;99.90;;;;;;5047874;28;20470;-71
2023/08/30 08:55:48;;;;;;;7.30;4.90;;;18.50;99.90;;;;;;5047247;28;20491;-72
2023/08/30 08:58:14;;;;;;;5.87;4.77;;;18.50;99.90;;;;;;5047181;28;20511;-71
2023/08/30 09:00:44;;;;;;;6.30;5.03;;;18.60;99.90;;;;;;5047052;28;20423;-72
2023/08/30 09:03:10;;;;;;;6.70;4.90;;;18.70;99.90;;;;;;5048014;28;21017;-72
2023/08/30 09:05:38;;;;;;;8.73;4.87;;;18.60;99.90;;;;;;5046052;28;20416;-72
2023/08/30 09:08:05;;;;;;;5.63;4.83;;;18.70;99.90;;;;;;5047229;28;20420;-72
2023/08/30 09:10:35;;;;;;;5.17;4.67;;;18.80;99.90;;;;;;5048064;28;20408;-71
2023/08/30 09:13:01;;;;;;;5.57;5.00;;;18.80;99.90;;;;;;5047816;28;20426;-72
2023/08/30 09:15:34;;;;;;;8.20;5.13;;;18.90;99.90;;;;;;5047655;28;20456;-71
2023/08/30 09:18:00;;;;;;;5.53;4.97;;;18.90;99.90;;;;;;5047168;28;20208;-71
2023/08/30 09:20:25;;;;;;;6.77;5.40;;;18.90;99.90;;;;;;5046671;28;20448;-72
2023/08/30 09:22:51;;;;;;;8.80;5.10;;;18.90;99.90;;;;;;5047944;28;20412;-71
2023/08/30 09:25:27;;;;;;;5.67;4.50;;;18.90;99.90;;;;;;5056628;28;20432;-72
2023/08/30 09:28:03;;;;;;;8.23;5.30;;;18.90;99.90;;;;;;5057795;28;20195;-72
2023/08/30 09:30:29;;;;;;;6.67;5.37;;;18.90;99.90;;;;;;5056804;28;21118;-72
2023/08/30 09:33:02;;;;;;;8.50;5.30;;;19.00;99.90;;;;;;5051478;28;20447;-72
2023/08/30 09:35:28;;;;;;;7.57;5.53;;;18.90;99.90;;;;;;5046311;28;20849;-72
2023/08/30 09:37:54;;;;;;;6.80;5.70;;;18.90;99.90;;;;;;5046168;28;20414;-72
2023/08/30 09:40:20;;;;;;;6.00;5.27;;;18.90;99.90;;;;;;5049059;28;20531;-71
2023/08/30 09:42:46;;;;;;;7.90;7.10;;;18.90;99.90;;;;;;5050136;28;20408;-72
2023/08/30 09:45:19;;;;;;;8.37;5.93;;;19.00;99.90;;;;;;5050066;28;20408;-71
2023/08/30 09:47:49;;;;;;;5.70;5.10;;;18.90;99.90;;;;;;5050768;28;20408;-72
2023/08/30 09:50:19;;;;;;;8.80;5.80;;;19.00;99.90;;;;;;5050106;28;20440;-71
2023/08/30 09:52:49;;;;;;;7.10;5.93;;;19.10;99.90;;;;;;5051437;28;20425;-72
2023/08/30 09:55:15;;;;;;;6.83;6.17;;;19.10;99.90;;;;;;5050978;28;20451;-71
2023/08/30 09:57:45;;;;;;;8.40;5.70;;;19.20;99.90;;;;;;5050383;28;20408;-72
2023/08/30 10:00:14;;;;;;;8.10;7.30;;;19.10;99.90;;;;;;5049501;28;20435;-72
2023/08/30 10:02:44;;;;;;;7.07;6.40;;;19.00;99.90;;;;;;5051081;28;20439;-72
2023/08/30 10:05:13;;;;;;;5.87;5.33;;;18.90;99.90;;;;;;5050864;28;20719;-72
2023/08/30 10:07:39;;;;;;;6.77;5.70;;;18.90;99.90;;;;;;5050482;28;20983;-72
2023/08/30 10:10:05;;;;;;;7.37;6.67;;;18.80;99.90;;;;;;5049467;28;20442;-72
2023/08/30 10:12:32;;;;;;;6.97;6.27;;;18.60;99.90;;;;;;5049341;28;20416;-72
2023/08/30 10:14:58;;;;;;;9.00;5.90;;;18.40;99.90;;;;;;5050704;28;20419;-72
2023/08/30 10:17:28;;;;;;;6.50;5.07;;;18.30;99.90;;;;;;5049791;28;20460;-72
2023/08/30 10:19:55;;;;;;;6.50;6.00;;;18.10;99.90;;;;;;5050835;28;20235;-72
2023/08/30 10:22:22;;;;;;;7.90;7.13;;;18.00;99.90;;;;;;5050423;28;20420;-72
2023/08/30 10:24:54;;;;;;;7.30;6.70;;;17.90;99.90;;;;;;5050469;28;20905;-72
2023/08/30 10:27:21;;;;;;;7.67;7.07;;;17.80;99.90;;;;;;5049682;28;20897;-72
2023/08/30 10:29:49;;;;;;;12.40;7.53;;;17.70;99.90;;;;;;5049297;28;20734;-72
2023/08/30 10:32:20;;;;;;;8.20;7.40;;;17.70;99.90;;;;;;5048808;28;20527;-72
2023/08/30 10:34:49;;;;;;;7.53;6.83;;;17.70;99.90;;;;;;5050209;28;20443;-72
2023/08/30 10:37:15;;;;;;;8.23;7.43;;;17.70;99.90;;;;;;5048459;28;20456;-72
2023/08/30 10:39:42;;;;;;;8.70;8.00;;;17.60;99.90;;;;;;5050247;28;20432;-72
2023/08/30 10:42:13;;;;;;;8.93;8.10;;;17.50;99.90;;;;;;5050323;28;20401;-72
2023/08/30 10:44:52;;;;;;;9.13;8.33;;;17.50;99.90;;;;;;5050031;28;20436;-72
2023/08/30 10:47:29;;;;;;;9.13;7.97;;;17.40;99.90;;;;;;5047949;28;20469;-71
2023/08/30 10:49:59;;;;;;;8.07;7.37;;;17.40;99.90;;;;;;5050064;28;20436;-71
2023/08/30 10:52:26;;;;;;;8.93;8.17;;;17.40;99.90;;;;;;5048430;28;21001;-71
2023/08/30 10:54:52;;;;;;;9.03;8.13;;;17.50;99.90;;;;;;5049715;28;20959;-71
2023/08/30 10:57:20;;;;;;;11.90;9.50;;;17.50;99.90;;;;;;5048095;28;20535;-71
2023/08/30 11:00:08;;;;;;;8.87;7.97;;;17.50;99.90;;;;;;5048594;28;20428;-72
2023/08/30 11:02:34;;;;;;;11.27;10.17;;;17.50;99.90;;;;;;5049914;28;20408;-71
2023/08/30 11:05:00;;;;;;;9.63;8.73;;;17.40;99.90;;;;;;5049559;28;20443;-72
2023/08/30 11:07:26;;;;;;;9.90;9.00;;;17.20;99.90;;;;;;5049300;28;20416;-71
2023/08/30 11:09:52;;;;;;;9.13;8.23;;;17.10;99.90;;;;;;5048305;28;20435;-72
2023/08/30 11:12:20;;;;;;;8.60;7.80;;;17.10;99.90;;;;;;5049817;28;20435;-72
2023/08/30 11:14:45;;;;;;;10.20;9.07;;;17.00;99.90;;;;;;5048038;28;20944;-72
2023/08/30 11:17:11;;;;;;;11.43;9.43;;;17.00;99.90;;;;;;5048991;28;20481;-71
2023/08/30 11:19:37;;;;;;;10.67;9.77;;;16.90;99.90;;;;;;5048138;28;20213;-72
2023/08/30 11:22:03;;;;;;;11.03;9.93;;;16.90;99.90;;;;;;5049363;28;20709;-72
2023/08/30 11:24:28;;;;;;;11.20;9.37;;;16.80;99.90;;;;;;5049577;28;20177;-72
2023/08/30 11:26:54;;;;;;;10.13;7.87;;;16.80;99.90;;;;;;5048425;28;20416;-72
2023/08/30 11:29:20;;;;;;;7.33;6.63;;;16.80;99.90;;;;;;5049508;28;20277;-71
2023/08/30 11:31:46;;;;;;;8.23;7.30;;;16.70;99.90;;;;;;5049309;28;20582;-71
2023/08/30 11:34:12;;;;;;;7.20;6.50;;;16.70;99.90;;;;;;5049075;28;20620;-71
2023/08/30 11:36:39;;;;;;;7.90;7.10;;;16.70;99.90;;;;;;5048401;28;20459;-72
2023/08/30 11:39:05;;;;;;;8.33;7.53;;;16.70;99.90;;;;;;5047658;28;20454;-72
2023/08/30 11:41:31;;;;;;;8.20;7.50;;;16.80;99.90;;;;;;5049427;28;20763;-71
2023/08/30 11:43:58;;;;;;;8.70;7.90;;;16.70;99.90;;;;;;5049027;28;20952;-71
2023/08/30 11:46:24;;;;;;;8.30;7.57;;;16.70;99.90;;;;;;5047067;28;20963;-72
2023/08/30 11:48:52;;;;;;;9.67;7.90;;;16.80;99.90;;;;;;5048854;28;20436;-71
2023/08/30 11:51:19;;;;;;;9.37;7.70;;;16.70;99.90;;;;;;5048994;28;20412;-71
2023/08/30 11:53:45;;;;;;;9.33;8.10;;;16.70;99.90;;;;;;5047950;28;21093;-71
2023/08/30 11:56:11;;;;;;;7.23;6.50;;;16.40;99.90;;;;;;5047382;28;20558;-71
2023/08/30 11:58:37;;;;;;;7.30;4.80;;;16.30;99.90;;;;;;5048426;28;20463;-71
2023/08/30 12:01:04;;;;;;;5.17;4.77;;;16.30;99.90;;;;;;5047467;28;20405;-71
2023/08/30 12:03:31;;;;;;;4.70;4.30;;;16.40;99.90;;;;;;5048738;28;20436;-71
2023/08/30 12:05:58;;;;;;;4.87;4.33;;;16.40;99.90;;;;;;5048632;28;20419;-71
2023/08/30 12:08:25;;;;;;;4.80;4.40;;;16.30;99.90;;;;;;5048134;28;20495;-71
2023/08/30 12:10:51;;;;;;;4.87;3.93;;;16.20;99.90;;;;;;5049049;28;20413;-71
2023/08/30 12:13:24;;;;;;;4.23;3.83;;;16.30;99.90;;;;;;5048742;28;20448;-72
2023/08/30 12:15:51;;;;;;;3.20;2.90;;;16.30;99.90;;;;;;5048615;28;20456;-72
2023/08/30 12:18:17;;;;;;;3.80;3.50;;;16.30;99.90;;;;;;5046711;28;21126;-71
2023/08/30 12:20:57;;;;;;;2.90;2.70;;;16.30;99.90;;;;;;5049162;28;20412;-71
2023/08/30 12:23:24;;;;;;;5.83;3.60;;;16.20;99.90;;;;;;5048996;28;20174;-71
2023/08/30 12:26:06;;;;;;;4.53;3.70;;;16.10;99.90;;;;;;5048866;28;20411;-71
2023/08/30 12:28:34;;;;;;;4.17;3.77;;;16.10;99.90;;;;;;5049141;28;20432;-71
2023/08/30 12:30:59;;;;;;;4.30;3.60;;;16.00;99.90;;;;;;5056599;28;20428;-71
2023/08/30 12:33:25;;;;;;;3.70;3.40;;;16.00;99.90;;;;;;5064152;28;20415;-71
2023/08/30 12:35:55;;;;;;;3.87;3.57;;;16.00;99.90;;;;;;5061883;28;20220;-71